createdAt,value
2022-08-11T00:01:26.111Z,9.40
2022-08-11T00:04:11.636Z,7.53
2022-08-11T00:07:03.158Z,7.30
2022-08-11T00:12:37.949Z,7.05
2022-08-11T00:15:39.628Z,8.32
2022-08-11T00:18:40.263Z,8.32
2022-08-11T00:22:01.974Z,11.65
2022-08-11T00:24:53.599Z,10.25
2022-08-11T00:27:42.868Z,14.98
2022-08-11T00:30:39.401Z,5.80
2022-08-11T00:33:44.409Z,11.27
2022-08-11T00:36:53.505Z,13.30
2022-08-11T00:39:46.815Z,7.30
2022-08-11T00:42:58.594Z,18.50
2022-08-11T00:46:12.506Z,11.60
2022-08-11T00:49:01.802Z,11.05
2022-08-11T00:52:22.759Z,10.20
2022-08-11T00:55:18.070Z,8.13
2022-08-11T00:58:06.344Z,8.10
2022-08-11T01:01:18.604Z,7.78
2022-08-11T01:04:23.740Z,11.63
2022-08-11T01:08:01.582Z,10.15
2022-08-11T01:11:16.630Z,9.00
2022-08-11T01:17:36.514Z,13.77
2022-08-11T01:20:53.155Z,11.18
2022-08-11T01:24:04.113Z,8.73
2022-08-11T01:27:19.084Z,7.28
2022-08-11T01:30:27.610Z,9.05
2022-08-11T01:33:52.278Z,10.38
2022-08-11T01:36:53.416Z,11.68
2022-08-11T01:39:56.374Z,16.98
2022-08-11T01:43:40.571Z,19.45
2022-08-11T01:46:48.138Z,14.77
2022-08-11T01:50:05.965Z,13.27
2022-08-11T01:53:11.255Z,10.02
2022-08-11T01:56:43.263Z,6.20
2022-08-11T01:59:35.388Z,11.38
2022-08-11T02:02:44.990Z,13.65
2022-08-11T02:06:01.314Z,6.97
2022-08-11T02:09:00.027Z,8.48
2022-08-11T02:11:50.701Z,12.77
2022-08-11T02:15:04.987Z,12.05
2022-08-11T02:18:07.484Z,16.30
2022-08-11T02:21:22.006Z,18.10
2022-08-11T02:24:17.404Z,9.55
2022-08-11T02:27:19.280Z,14.18
2022-08-11T02:30:18.042Z,8.10
2022-08-11T02:33:25.611Z,14.90
2022-08-11T02:36:34.593Z,14.65
2022-08-11T02:39:22.144Z,19.48
2022-08-11T02:42:42.387Z,17.33
2022-08-11T02:45:42.174Z,14.00
2022-08-11T02:49:03.029Z,17.40
2022-08-11T02:55:07.570Z,8.27
2022-08-11T03:01:29.082Z,11.85
2022-08-11T03:04:51.856Z,9.20
2022-08-11T03:08:15.461Z,9.60
2022-08-11T03:11:37.416Z,9.45
2022-08-11T03:15:32.138Z,11.73
2022-08-11T03:18:25.532Z,20.38
2022-08-11T03:22:01.394Z,12.65
2022-08-11T03:24:50.147Z,13.88
2022-08-11T03:28:19.838Z,15.27
2022-08-11T03:31:25.267Z,13.43
2022-08-11T03:34:20.556Z,12.60
2022-08-11T03:37:39.302Z,15.02
2022-08-11T03:41:02.800Z,12.45
2022-08-11T03:44:28.707Z,11.80
2022-08-11T03:47:28.371Z,14.55
2022-08-11T03:50:35.392Z,9.55
2022-08-11T03:53:56.749Z,16.75
2022-08-11T03:57:31.667Z,11.57
2022-08-11T04:00:50.409Z,12.43
2022-08-11T04:03:58.726Z,9.75
2022-08-11T04:07:02.492Z,10.80
2022-08-11T04:10:13.280Z,16.60
2022-08-11T04:13:17.487Z,11.07
2022-08-11T04:16:15.976Z,13.18
2022-08-11T04:19:40.138Z,13.32
2022-08-11T04:22:36.789Z,15.90
2022-08-11T04:25:57.715Z,16.33
2022-08-11T04:28:50.142Z,11.07
2022-08-11T04:31:50.363Z,13.32
2022-08-11T04:37:34.266Z,16.40
2022-08-11T04:40:43.561Z,12.70
2022-08-11T04:44:05.654Z,10.88
2022-08-11T04:47:12.015Z,14.10
2022-08-11T04:50:43.269Z,11.60
2022-08-11T04:54:28.426Z,16.27
2022-08-11T04:57:41.690Z,14.77
2022-08-11T05:00:50.092Z,11.80
2022-08-11T05:04:33.084Z,12.32
2022-08-11T05:07:49.678Z,12.20
2022-08-11T05:10:56.998Z,13.38
2022-08-11T05:14:07.570Z,18.95
2022-08-11T05:17:18.600Z,14.20
2022-08-11T05:20:31.523Z,14.18
2022-08-11T05:23:41.639Z,14.57
2022-08-11T05:26:53.390Z,14.32
2022-08-11T05:30:06.166Z,11.63
2022-08-11T05:33:32.030Z,12.77
2022-08-11T05:36:45.299Z,10.27
2022-08-11T05:39:57.110Z,15.45
2022-08-11T05:43:08.288Z,13.68
2022-08-11T05:46:25.823Z,12.30
2022-08-11T05:49:32.971Z,16.40
2022-08-11T05:52:43.984Z,14.77
2022-08-11T05:56:22.275Z,9.50
2022-08-11T05:59:20.530Z,16.52
2022-08-11T06:02:11.321Z,14.32
2022-08-11T06:05:06.355Z,14.93
2022-08-11T06:08:02.811Z,12.77
2022-08-11T06:11:07.068Z,10.18
2022-08-11T06:14:04.348Z,11.07
2022-08-11T06:16:56.546Z,12.30
2022-08-11T06:19:51.210Z,13.75
2022-08-11T06:22:56.231Z,13.55
2022-08-11T06:25:47.621Z,10.00
2022-08-11T06:28:41.545Z,17.55
2022-08-11T06:31:36.263Z,22.38
2022-08-11T06:34:40.073Z,13.10
2022-08-11T06:37:59.140Z,10.25
2022-08-11T06:41:21.426Z,11.15
2022-08-11T06:44:15.682Z,16.50
2022-08-11T06:47:10.452Z,17.20
2022-08-11T06:50:19.560Z,16.10
2022-08-11T06:53:17.634Z,10.95
2022-08-11T06:56:28.436Z,15.18
2022-08-11T06:59:47.105Z,11.57
2022-08-11T07:03:01.713Z,14.98
2022-08-11T07:06:12.509Z,15.07
2022-08-11T07:10:26.847Z,9.82
2022-08-11T07:13:44.404Z,10.68
2022-08-11T07:16:35.666Z,11.98
2022-08-11T07:19:47.915Z,13.30
2022-08-11T07:22:55.306Z,12.88
2022-08-11T07:26:12.873Z,9.38
2022-08-11T07:29:14.292Z,9.48
2022-08-11T07:32:06.443Z,6.78
2022-08-11T07:35:14.219Z,10.02
2022-08-11T07:41:04.357Z,10.68
2022-08-11T07:44:11.656Z,5.45
2022-08-11T07:47:20.287Z,5.70
2022-08-11T07:50:28.218Z,7.85
2022-08-11T07:53:23.593Z,6.30
2022-08-11T07:56:47.990Z,7.97
2022-08-11T08:00:03.395Z,5.88
2022-08-11T08:03:19.343Z,7.25
2022-08-11T08:06:35.779Z,6.85
2022-08-11T08:09:43.783Z,7.88
2022-08-11T08:12:54.057Z,4.15
2022-08-11T08:16:00.177Z,6.22
2022-08-11T08:18:50.107Z,6.82
2022-08-11T08:21:40.777Z,6.05
2022-08-11T08:24:36.853Z,6.93
2022-08-11T08:27:27.728Z,3.05
2022-08-11T08:30:37.152Z,5.15
2022-08-11T08:33:30.191Z,4.07
2022-08-11T08:36:21.349Z,4.88
2022-08-11T08:39:09.841Z,6.78
2022-08-11T08:42:00.166Z,3.63
2022-08-11T08:45:04.170Z,4.47
2022-08-11T08:48:01.961Z,3.78
2022-08-11T08:51:21.904Z,4.57
2022-08-11T08:54:35.114Z,3.67
2022-08-11T08:57:32.116Z,8.05
2022-08-11T09:00:41.038Z,6.22
2022-08-11T09:04:02.991Z,5.78
2022-08-11T09:06:43.019Z,3.70
2022-08-11T09:09:35.078Z,5.60
2022-08-11T09:12:36.304Z,3.60
2022-08-11T09:15:26.619Z,5.25
2022-08-11T09:18:19.665Z,10.95
2022-08-11T09:21:13.854Z,4.32
2022-08-11T09:24:26.584Z,5.60
2022-08-11T09:27:14.578Z,4.38
2022-08-11T09:30:17.066Z,5.75
2022-08-11T09:33:07.005Z,4.30
2022-08-11T09:35:54.894Z,4.78
2022-08-11T09:39:27.317Z,7.85
2022-08-11T09:42:45.627Z,3.22
2022-08-11T09:45:39.889Z,5.43
2022-08-11T09:48:45.530Z,4.38
2022-08-11T09:51:34.106Z,6.40
2022-08-11T09:54:22.105Z,7.65
2022-08-11T09:57:31.061Z,7.17
2022-08-11T10:00:18.988Z,4.32
2022-08-11T10:03:22.030Z,3.90
2022-08-11T10:06:34.254Z,2.72
2022-08-11T10:09:21.645Z,6.68
2022-08-11T10:12:43.198Z,3.90
2022-08-11T10:15:59.768Z,16.10
2022-08-11T10:18:53.702Z,10.13
2022-08-11T10:22:07.011Z,8.68
2022-08-11T10:25:20.032Z,4.80
2022-08-11T10:28:32.715Z,9.85
2022-08-11T10:31:45.128Z,3.22
2022-08-11T10:34:54.616Z,2.42
2022-08-11T10:38:07.753Z,4.38
2022-08-11T10:41:17.725Z,7.35
2022-08-11T10:44:10.033Z,7.18
2022-08-11T10:47:16.122Z,5.30
2022-08-11T10:50:29.388Z,4.28
2022-08-11T10:53:45.393Z,5.55
2022-08-11T10:57:18.399Z,2.55
2022-08-11T11:00:15.746Z,6.78
2022-08-11T11:03:23.055Z,3.28
2022-08-11T11:06:29.186Z,2.67
2022-08-11T11:09:33.664Z,2.15
2022-08-11T11:12:55.951Z,3.85
2022-08-11T11:16:06.584Z,3.22
2022-08-11T11:19:05.786Z,1.85
2022-08-11T11:22:19.185Z,3.92
2022-08-11T11:25:43.518Z,2.67
2022-08-11T11:29:18.740Z,3.65
2022-08-11T11:32:23.118Z,3.85
2022-08-11T11:35:26.332Z,3.33
2022-08-11T11:38:17.253Z,2.28
2022-08-11T11:41:26.287Z,3.97
2022-08-11T11:44:17.081Z,6.00
2022-08-11T11:47:16.117Z,2.63
2022-08-11T11:50:14.677Z,3.45
2022-08-11T11:53:15.466Z,4.97
2022-08-11T11:56:10.411Z,3.78
2022-08-11T11:59:28.298Z,4.70
2022-08-11T12:02:19.875Z,8.48
2022-08-11T12:05:17.582Z,4.13
2022-08-11T12:08:15.879Z,3.63
2022-08-11T12:11:25.889Z,4.20
2022-08-11T12:14:18.840Z,3.83
2022-08-11T12:17:10.631Z,5.90
2022-08-11T12:20:04.841Z,3.10
2022-08-11T12:23:35.010Z,5.93
2022-08-11T12:26:43.315Z,7.38
2022-08-11T12:29:50.067Z,5.32
2022-08-11T12:32:53.239Z,3.45
2022-08-11T12:35:42.788Z,2.97
2022-08-11T12:38:51.510Z,1.83
2022-08-11T12:42:02.145Z,2.50
2022-08-11T12:45:21.943Z,6.70
2022-08-11T12:48:58.412Z,2.85
2022-08-11T12:52:12.068Z,2.38
2022-08-11T12:55:13.682Z,1.75
2022-08-11T12:58:18.334Z,4.40
2022-08-11T13:01:27.714Z,4.07
2022-08-11T13:04:34.758Z,4.18
2022-08-11T13:07:51.007Z,5.55
2022-08-11T13:10:54.847Z,4.68
2022-08-11T13:13:53.587Z,2.95
2022-08-11T13:17:01.389Z,3.00
2022-08-11T13:19:50.308Z,3.58
2022-08-11T13:22:39.356Z,3.03
2022-08-11T13:25:31.691Z,3.25
2022-08-11T13:28:21.705Z,3.53
2022-08-11T13:31:14.641Z,3.45
2022-08-11T13:37:00.787Z,4.60
2022-08-11T13:39:53.174Z,3.08
2022-08-11T13:42:41.333Z,3.47
2022-08-11T13:45:27.963Z,4.10
2022-08-11T13:48:17.840Z,3.03
2022-08-11T13:51:22.836Z,3.08
2022-08-11T13:54:23.511Z,4.75
2022-08-11T13:58:06.710Z,2.03
2022-08-11T14:00:28.056Z,3.53
2022-08-11T14:03:18.798Z,2.22
2022-08-11T14:08:55.592Z,3.80
2022-08-11T14:12:21.818Z,5.03
2022-08-11T14:15:35.633Z,2.97
2022-08-11T14:18:32.005Z,7.95
2022-08-11T14:21:40.940Z,8.30
2022-08-11T14:24:30.378Z,4.72
2022-08-11T14:28:29.814Z,3.55
2022-08-11T14:30:43.583Z,3.92
2022-08-11T14:34:00.409Z,3.83
2022-08-11T14:36:45.603Z,5.22
2022-08-11T14:39:41.524Z,5.03
2022-08-11T14:42:51.220Z,3.70
2022-08-11T14:45:58.646Z,5.70
2022-08-11T14:48:50.737Z,4.18
2022-08-11T14:51:41.754Z,5.50
2022-08-11T14:54:50.325Z,4.38
2022-08-11T14:57:55.578Z,5.72
2022-08-11T15:00:45.471Z,3.05
2022-08-11T15:03:33.903Z,2.55
2022-08-11T15:06:20.750Z,5.13
2022-08-11T15:09:09.360Z,3.50
2022-08-11T15:12:32.604Z,5.22
2022-08-11T15:15:39.369Z,3.42
2022-08-11T15:18:32.081Z,3.80
2022-08-11T15:21:36.571Z,5.45
2022-08-11T15:24:25.148Z,5.55
2022-08-11T15:27:35.575Z,3.92
2022-08-11T15:30:42.842Z,3.55
2022-08-11T15:33:53.373Z,3.97
2022-08-11T15:37:00.122Z,2.30
2022-08-11T15:40:31.194Z,3.40
2022-08-11T15:43:40.578Z,3.13
2022-08-11T15:46:46.237Z,2.17
2022-08-11T15:50:11.422Z,3.67
2022-08-11T15:52:57.314Z,6.38
2022-08-11T15:55:45.877Z,2.30
2022-08-11T15:59:10.779Z,5.78
2022-08-11T16:02:20.685Z,3.73
2022-08-11T16:05:11.486Z,4.38
2022-08-11T16:08:00.357Z,4.10
2022-08-11T16:10:48.072Z,4.05
2022-08-11T16:13:42.264Z,1.67
2022-08-11T16:16:30.676Z,6.50
2022-08-11T16:19:20.582Z,7.00
2022-08-11T16:22:09.793Z,2.72
2022-08-11T16:26:30.362Z,3.83
2022-08-11T16:28:08.090Z,3.88
2022-08-11T16:30:55.104Z,5.20
2022-08-11T16:33:51.301Z,4.20
2022-08-11T16:36:57.766Z,2.58
2022-08-11T16:39:48.342Z,3.88
2022-08-11T16:43:05.289Z,2.33
2022-08-11T16:46:22.614Z,6.78
2022-08-11T16:49:14.702Z,7.28
2022-08-11T16:52:08.127Z,5.60
2022-08-11T16:54:54.698Z,5.57
2022-08-11T16:58:00.112Z,3.65
2022-08-11T17:00:48.598Z,2.83
2022-08-11T17:03:53.775Z,4.50
2022-08-11T17:07:03.712Z,2.50
2022-08-11T17:10:52.476Z,2.83
2022-08-11T17:13:47.971Z,6.38
2022-08-11T17:16:37.920Z,4.53
2022-08-11T17:20:40.962Z,5.32
2022-08-11T17:22:56.068Z,4.80
2022-08-11T17:25:59.865Z,6.35
2022-08-11T17:28:56.779Z,3.75
2022-08-11T17:32:03.971Z,6.32
2022-08-11T17:35:21.068Z,5.43
2022-08-11T17:38:15.490Z,3.10
2022-08-11T17:41:23.614Z,7.95
2022-08-11T17:44:30.354Z,6.97
2022-08-11T17:47:38.923Z,8.07
2022-08-11T17:50:31.944Z,5.68
2022-08-11T17:53:38.713Z,4.10
2022-08-11T17:56:46.138Z,9.57
2022-08-11T17:59:51.587Z,9.23
2022-08-11T18:03:02.723Z,9.93
2022-08-11T18:05:49.846Z,14.35
2022-08-11T18:08:59.718Z,7.35
2022-08-11T18:12:11.648Z,10.15
2022-08-11T18:15:20.227Z,10.45
2022-08-11T18:18:28.051Z,7.75
2022-08-11T18:25:30.111Z,6.57
2022-08-11T18:28:56.281Z,10.63
2022-08-11T18:32:09.826Z,13.93
2022-08-11T18:38:35.611Z,12.43
2022-08-11T18:41:48.033Z,15.73
2022-08-11T18:44:57.780Z,9.20
2022-08-11T18:48:11.514Z,10.98
2022-08-11T18:51:29.800Z,12.93
2022-08-11T18:54:42.618Z,15.00
2022-08-11T19:01:07.312Z,21.33
2022-08-11T19:04:19.033Z,16.88
2022-08-11T19:07:25.338Z,22.75
2022-08-11T19:10:31.786Z,20.42
2022-08-11T19:13:43.331Z,22.17
2022-08-11T19:16:54.121Z,19.25
2022-08-11T19:20:00.164Z,29.50
2022-08-11T19:23:07.116Z,18.73
2022-08-11T19:26:12.879Z,19.55
2022-08-11T19:30:07.090Z,20.52
2022-08-11T19:32:43.819Z,29.40
2022-08-11T19:35:49.337Z,17.17
2022-08-11T19:38:55.813Z,12.25
2022-08-11T19:42:01.136Z,17.58
2022-08-11T19:45:08.145Z,10.73
2022-08-11T19:48:32.101Z,12.20
2022-08-11T19:51:38.918Z,9.32
2022-08-11T19:54:51.986Z,9.52
2022-08-11T19:57:57.876Z,11.90
2022-08-11T20:04:59.643Z,16.30
2022-08-11T20:11:57.620Z,17.17
2022-08-11T20:15:10.156Z,15.07
2022-08-11T20:18:43.735Z,16.55
2022-08-11T20:21:48.140Z,18.75
2022-08-11T20:24:54.902Z,11.80
2022-08-11T20:28:03.185Z,11.32
2022-08-11T20:31:20.083Z,11.05
2022-08-11T20:34:32.794Z,11.50
2022-08-11T20:37:41.003Z,39.63
2022-08-11T20:40:49.171Z,21.45
2022-08-11T20:44:09.115Z,18.58
2022-08-11T20:47:16.053Z,16.98
2022-08-11T20:50:21.927Z,11.75
2022-08-11T20:53:28.091Z,21.88
2022-08-11T20:56:34.081Z,20.48
2022-08-11T20:59:50.161Z,20.98
2022-08-11T21:03:04.153Z,15.65
2022-08-11T21:06:11.216Z,20.98
2022-08-11T21:09:19.639Z,12.48
2022-08-11T21:12:25.504Z,11.77
2022-08-11T21:15:47.605Z,10.88
2022-08-11T21:19:03.496Z,9.43
2022-08-11T21:22:10.233Z,8.77
2022-08-11T21:25:16.888Z,10.40
2022-08-11T21:28:26.932Z,9.48
2022-08-11T21:31:32.517Z,8.77
2022-08-11T21:34:39.196Z,14.05
2022-08-11T21:37:46.519Z,13.57
2022-08-11T21:40:57.797Z,14.18
2022-08-11T21:44:02.838Z,10.80
2022-08-11T21:47:08.504Z,13.77
2022-08-11T21:50:13.360Z,13.52
2022-08-11T21:53:19.607Z,22.50
2022-08-11T21:56:27.577Z,16.40
2022-08-11T21:59:41.615Z,39.08
2022-08-11T22:02:53.484Z,36.53
2022-08-11T22:06:02.479Z,52.47
2022-08-11T22:09:07.237Z,67.50
2022-08-11T22:12:33.423Z,35.13
2022-08-11T22:15:38.829Z,17.58
2022-08-11T22:18:43.968Z,19.83
2022-08-11T22:22:02.396Z,26.50
2022-08-11T22:25:16.633Z,29.30
2022-08-11T22:28:25.759Z,37.38
2022-08-11T22:31:31.128Z,39.42
2022-08-11T22:34:44.762Z,44.67
2022-08-11T22:37:58.822Z,45.13
2022-08-11T22:41:03.374Z,18.30
2022-08-11T22:44:07.729Z,18.63
2022-08-11T22:47:19.587Z,19.80
2022-08-11T22:50:26.604Z,10.23
2022-08-11T22:53:57.931Z,16.98
2022-08-11T22:56:59.427Z,27.63
2022-08-11T23:00:05.100Z,15.55
2022-08-11T23:03:10.273Z,18.88
2022-08-11T23:06:40.125Z,28.70
2022-08-11T23:09:44.740Z,11.50
2022-08-11T23:12:51.780Z,11.20
2022-08-11T23:15:57.644Z,27.85
2022-08-11T23:19:03.572Z,17.20
2022-08-11T23:22:10.552Z,15.38
2022-08-11T23:25:17.785Z,19.80
2022-08-11T23:28:24.972Z,14.50
2022-08-11T23:31:50.314Z,12.73
2022-08-11T23:35:37.065Z,9.55
2022-08-11T23:38:23.887Z,12.93
2022-08-11T23:41:29.970Z,8.90
2022-08-11T23:44:34.756Z,11.82
2022-08-11T23:47:50.916Z,15.55
2022-08-11T23:50:56.262Z,41.85
2022-08-11T23:54:00.783Z,20.60
2022-08-11T23:57:13.864Z,15.07
